Fall River Mills, California
Current Conditions -  °F | °C
As of 10:56 AM on Sunday 23 Nov 2014 (Local Time) from KMHS Reporting Station
Clear Clear  
Wind Chill: 40°   Ceiling: Unl
Heat Index: 40°   Visibility: 10mi
Dew Point: 34°   Wind: 0mph
Humidity: 79%   Direction: NA
Pressure: 30.37"   Gusts: NA
Location:  41°N, 121.44°W
Report Text: KMHS 231856Z AUTO 00000KT 10SM CLR 04/01 A3037 RMK AO2 SLP312 T00440011
Loading
Personal Weather Stations






























Interactive Weather Map New forecast layout! Learn more

10-Day Weather Forecast

Advertisements
Track Severe Weather on mobile